CheckWX is a tool to help pilots better visualize weather data.  It is not intended as a substitute for an official pre-flight weather briefing.

22:34:15 UTC

PAQT TAF
Nuiqsut Airport
Nuiqsut, Alaska, USA
PAQT 191926Z 1919/2018 09010KT P6SM FEW015 FM192200 10008KT P6SM OVC015 FM200600 09012KT 4SM BR OVC007 FM201500 10011KT 6SM BR BKN007 OVC015

Oct-19@
19:00 UTC

Oct-19 @ 19:00 UTC

Oct-19@
22:00 UTC

Oct-19 @ 22:00 UTC

PAQT 191926Z 1919/2018 09010KT P6SM FEW015

Expired

Wind
  • 090° at 10 KTS
Cloud Levels
  • Few at 1,500' AGL

Oct-19@
22:00 UTC

Oct-19 @ 22:00 UTC

Oct-20@
06:00 UTC

Oct-20 @ 06:00 UTC

FM192200 10008KT P6SM OVC015

From

From Standard forecast or significant change

Wind
  • 100° at 8 KTS
Cloud Levels
  • Overcast at 1,500' AGL

Oct-20@
06:00 UTC

Oct-20 @ 06:00 UTC

Oct-20@
15:00 UTC

Oct-20 @ 15:00 UTC

FM200600 09012KT 4SM BR OVC007

From

From Standard forecast or significant change

Wind
  • 090° at 12 KTS
Conditions
Mist
Cloud Levels
  • Overcast at 700' AGL

Oct-20@
15:00 UTC

Oct-20 @ 15:00 UTC

Oct-20@
18:00 UTC

Oct-20 @ 18:00 UTC

FM201500 10011KT 6SM BR BKN007 OVC015

From

From Standard forecast or significant change

Wind
  • 100° at 11 KTS
Conditions
Mist
Cloud Levels
  • Broken at 700' AGL
  • Overcast at 1,500' AGL